Time;durP1;ratioP1;P1;durP2;ratioP2;P2;SDS_P1;SDS_P2;PMS_P1;PMS_P2;Temp;Humidity;BMP_temperature;BMP_pressure;BME280_temperature;BME280_humidity;BME280_pressure;Samples;Min_cycle;Max_cycle;Signal;HPM_P1;HPM_P2
2023/12/20 00:00:47;;;;;;;3.67;2.00;;;;;;;5.74;71.96;98613.03;5028488;27;102729;-68
2023/12/20 00:03:17;;;;;;;3.53;2.05;;;;;;;5.78;71.99;98618.84;5010974;27;104289;-68
2023/12/20 00:05:46;;;;;;;3.67;1.98;;;;;;;5.77;72.50;98612.72;5004899;27;103359;-67
2023/12/20 00:08:14;;;;;;;4.15;1.77;;;;;;;5.79;72.34;98600.28;5030551;27;103006;-67
2023/12/20 00:10:43;;;;;;;3.58;1.90;;;;;;;5.86;72.42;98599.75;5009129;27;102915;-67
2023/12/20 00:13:13;;;;;;;3.38;2.10;;;;;;;5.79;73.57;98600.28;5013419;27;103597;-67
2023/12/20 00:15:41;;;;;;;3.28;1.88;;;;;;;5.76;73.46;98597.09;5031504;27;103278;-67
2023/12/20 00:18:09;;;;;;;3.70;1.80;;;;;;;5.81;73.71;98589.63;5006035;27;102686;-67
2023/12/20 00:20:37;;;;;;;3.33;2.00;;;;;;;5.80;73.47;98590.59;5030287;27;103011;-67
2023/12/20 00:23:05;;;;;;;2.75;1.75;;;;;;;5.80;73.91;98586.19;5008618;27;104140;-67
2023/12/20 00:25:33;;;;;;;3.30;1.90;;;;;;;5.86;74.00;98590.03;5012469;27;103790;-67
2023/12/20 00:28:00;;;;;;;2.38;1.67;;;;;;;5.88;74.10;98593.38;5004213;27;102988;-67
2023/12/20 00:30:30;;;;;;;3.08;1.85;;;;;;;5.86;75.21;98583.97;5027511;27;104928;-67
2023/12/20 00:32:58;;;;;;;4.28;2.15;;;;;;;5.81;75.48;98590.47;5019818;27;103239;-67
2023/12/20 00:35:26;;;;;;;2.70;1.98;;;;;;;5.79;76.02;98574.00;5031243;27;103182;-67
2023/12/20 00:37:54;;;;;;;4.32;3.25;;;;;;;5.79;76.58;98574.00;5009056;27;102968;-66
2023/12/20 00:40:22;;;;;;;3.95;2.70;;;;;;;5.75;77.01;98579.69;5021705;27;102684;-66
2023/12/20 00:42:50;;;;;;;3.60;2.53;;;;;;;5.72;76.87;98567.66;5030028;27;103900;-66
2023/12/20 00:45:18;;;;;;;4.43;2.63;;;;;;;5.72;77.19;98562.38;5007543;27;103214;-65
2023/12/20 00:47:48;;;;;;;3.60;2.20;;;;;;;5.72;77.99;98567.66;5019543;27;102971;-66
2023/12/20 00:50:17;;;;;;;3.53;1.83;;;;;;;5.73;77.85;98571.94;5003150;27;104489;-65
2023/12/20 00:52:47;;;;;;;3.53;2.22;;;;;;;5.75;77.53;98572.63;5004240;27;104091;-66
2023/12/20 00:55:15;;;;;;;4.70;2.03;;;;;;;5.73;77.73;98579.00;5028322;27;103203;-66
2023/12/20 00:57:45;;;;;;;3.67;2.22;;;;;;;5.65;78.49;98571.81;5012874;27;102721;-66
2023/12/20 01:00:14;;;;;;;4.15;2.33;;;;;;;5.54;78.88;98582.47;5007706;27;102697;-65
2023/12/20 01:02:42;;;;;;;4.18;2.70;;;;;;;5.45;79.60;98576.22;5025213;27;103955;-66
2023/12/20 01:05:12;;;;;;;4.88;2.55;;;;;;;5.28;80.93;98581.22;5032921;27;103041;-66
2023/12/20 01:07:39;;;;;;;3.63;2.55;;;;;;;5.21;81.39;98574.84;5029442;27;102931;-66
2023/12/20 01:10:08;;;;;;;4.85;3.00;;;;;;;5.29;80.89;98566.28;5030020;27;104156;-66
2023/12/20 01:12:37;;;;;;;3.70;2.60;;;;;;;5.32;81.03;98581.78;5031402;27;104287;-66
2023/12/20 01:15:06;;;;;;;4.30;2.42;;;;;;;5.35;80.83;98588.56;5025481;27;103326;-66
2023/12/20 01:17:34;;;;;;;4.45;2.20;;;;;;;5.40;80.43;98584.53;5031280;27;102663;-65
2023/12/20 01:20:02;;;;;;;4.88;2.75;;;;;;;5.41;80.59;98580.09;5026039;27;102681;-65
2023/12/20 01:22:31;;;;;;;3.80;2.33;;;;;;;5.45;80.35;98587.59;5027589;27;103918;-66
2023/12/20 01:24:59;;;;;;;4.90;2.30;;;;;;;5.47;80.36;98580.38;5007740;27;103206;-67
2023/12/20 01:27:27;;;;;;;3.70;2.17;;;;;;;5.50;80.40;98583.72;5012503;27;103171;-66
2023/12/20 01:29:55;;;;;;;3.78;2.00;;;;;;;5.45;80.18;98587.59;5030620;27;103908;-66
2023/12/20 01:32:23;;;;;;;4.05;2.72;;;;;;;5.45;80.18;98592.84;5029181;27;103315;-66
2023/12/20 01:34:51;;;;;;;4.07;2.60;;;;;;;5.46;80.50;98593.66;5030569;27;103264;-66
2023/12/20 01:37:19;;;;;;;4.05;2.30;;;;;;;5.45;80.35;98595.47;5031078;27;103135;-66
2023/12/20 01:39:49;;;;;;;3.45;2.15;;;;;;;5.42;80.85;98593.13;5033756;27;104096;-66
2023/12/20 01:42:17;;;;;;;3.70;2.30;;;;;;;5.37;80.97;98592.72;5045130;27;103383;-66
2023/12/20 01:44:44;;;;;;;3.60;2.53;;;;;;;5.30;81.44;98595.03;4999351;27;104360;-66
2023/12/20 01:47:13;;;;;;;3.70;2.20;;;;;;;5.36;81.53;98603.31;5034128;27;102681;-66
2023/12/20 01:49:41;;;;;;;6.50;3.40;;;;;;;5.35;81.48;98596.44;5011859;27;104258;-65
2023/12/20 01:52:10;;;;;;;5.05;3.00;;;;;;;5.33;81.60;98593.91;5009222;27;104187;-66
2023/12/20 01:54:42;;;;;;;5.30;3.10;;;;;;;5.39;81.56;98580.25;5031576;27;103189;-66
2023/12/20 01:57:12;;;;;;;7.93;4.38;;;;;;;5.33;81.52;98580.78;5029002;27;102591;-66
2023/12/20 01:59:42;;;;;;;5.35;3.28;;;;;;;5.31;81.65;98583.56;5011173;27;102760;-66
2023/12/20 02:02:12;;;;;;;5.53;3.58;;;;;;;5.29;81.58;98582.03;5024494;27;103247;-66
2023/12/20 02:04:40;;;;;;;4.28;2.72;;;;;;;5.29;81.88;98585.50;5027200;27;103055;-67
2023/12/20 02:07:09;;;;;;;4.70;3.05;;;;;;;5.35;81.40;98586.75;5013515;27;103251;-66
2023/12/20 02:09:37;;;;;;;5.05;2.42;;;;;;;5.28;81.90;98586.47;5031933;27;103880;-66
2023/12/20 02:12:06;;;;;;;4.05;2.35;;;;;;;5.33;81.70;98588.66;5029245;27;103292;-66
2023/12/20 02:14:36;;;;;;;4.60;2.67;;;;;;;5.33;81.32;98583.41;5010878;27;104246;-66
2023/12/20 02:17:06;;;;;;;4.38;2.47;;;;;;;5.30;81.52;98583.69;5029579;27;102616;-66
2023/12/20 02:19:34;;;;;;;6.20;2.30;;;;;;;5.32;81.77;98581.78;5024591;27;102650;-66
2023/12/20 02:22:09;;;;;;;3.92;2.20;;;;;;;5.33;81.36;98588.66;5026839;27;103281;-66
2023/12/20 02:24:37;;;;;;;4.43;2.70;;;;;;;5.28;81.36;98588.28;5022409;27;103191;-66
2023/12/20 02:27:09;;;;;;;3.97;2.50;;;;;;;5.24;81.55;98590.34;5008473;27;102636;-66
2023/12/20 02:29:37;;;;;;;3.72;2.30;;;;;;;5.28;81.62;98589.09;5009293;27;104115;-67
2023/12/20 02:32:05;;;;;;;5.15;2.40;;;;;;;5.27;81.33;98586.63;5025551;27;104331;-66
2023/12/20 02:34:33;;;;;;;4.80;2.80;;;;;;;5.25;81.51;98591.16;5008949;27;103261;-65
2023/12/20 02:37:01;;;;;;;3.60;2.30;;;;;;;5.27;81.83;98589.25;5027143;27;102855;-65
2023/12/20 02:39:31;;;;;;;4.22;2.35;;;;;;;5.29;81.69;98592.53;5006807;27;104259;-66
2023/12/20 02:41:59;;;;;;;5.43;3.40;;;;;;;5.28;81.40;98596.97;5027785;27;103389;-66
2023/12/20 02:44:27;;;;;;;3.80;2.40;;;;;;;5.26;81.47;98591.03;5008003;27;104236;-66
2023/12/20 02:46:55;;;;;;;3.72;2.30;;;;;;;5.28;81.28;98590.91;5022063;27;103799;-66
2023/12/20 02:49:22;;;;;;;4.68;2.90;;;;;;;5.27;81.44;98594.50;5009984;27;103805;-65
2023/12/20 02:51:50;;;;;;;4.15;2.80;;;;;;;5.29;81.37;98592.53;5032728;27;103233;-65
2023/12/20 02:54:18;;;;;;;3.97;2.70;;;;;;;5.24;81.99;98589.50;5021074;27;103267;-66
2023/12/20 02:56:48;;;;;;;4.03;2.20;;;;;;;5.27;81.96;98589.25;5029262;27;102605;-66
2023/12/20 02:59:15;;;;;;;2.90;1.90;;;;;;;5.30;82.01;98588.97;5031152;27;104079;-65
2023/12/20 03:01:45;;;;;;;2.45;1.75;;;;;;;5.24;82.05;98585.09;5002926;27;103882;-65
2023/12/20 03:04:13;;;;;;;2.63;1.60;;;;;;;5.31;82.11;98588.81;5024275;27;103182;-65
2023/12/20 03:06:41;;;;;;;2.53;1.48;;;;;;;5.31;82.09;98593.25;5037523;27;102616;-66
2023/12/20 03:09:09;;;;;;;1.27;1.17;;;;;;;5.31;81.89;98595.88;5030290;27;102740;-65
2023/12/20 03:11:37;;;;;;;1.45;1.17;;;;;;;5.34;81.26;98595.59;5012245;27;103319;-65
2023/12/20 03:14:06;;;;;;;1.48;1.08;;;;;;;5.32;81.52;98592.28;5026265;27;103324;-66
2023/12/20 03:16:34;;;;;;;0.98;0.90;;;;;;;5.34;81.28;98600.03;5023150;27;102697;-66
2023/12/20 03:19:04;;;;;;;1.48;1.02;;;;;;;5.35;81.47;98602.50;5038975;27;102690;-66
2023/12/20 03:21:32;;;;;;;1.02;0.90;;;;;;;5.40;80.81;98605.56;5043394;27;103273;-66
2023/12/20 03:24:02;;;;;;;0.90;0.90;;;;;;;5.35;80.95;98602.50;5029357;27;103207;-66
2023/12/20 03:26:29;;;;;;;1.15;0.90;;;;;;;5.34;80.96;98616.59;5027539;27;102641;-66
2023/12/20 03:28:57;;;;;;;1.00;0.90;;;;;;;5.30;80.90;98609.97;5009959;27;104173;-67
2023/12/20 03:31:27;;;;;;;1.40;1.30;;;;;;;5.34;80.51;98611.34;5007242;27;104364;-66
2023/12/20 03:33:55;;;;;;;0.85;0.82;;;;;;;5.31;80.63;98607.19;5024998;27;103140;-67
2023/12/20 03:36:23;;;;;;;1.00;0.90;;;;;;;5.34;80.10;98613.97;5007027;27;102740;-66
2023/12/20 03:38:51;;;;;;;0.90;0.88;;;;;;;5.38;80.46;98611.91;5006258;27;104154;-66
2023/12/20 03:41:18;;;;;;;0.60;0.60;;;;;;;5.32;80.31;98608.88;5021444;27;104183;-66
2023/12/20 03:43:46;;;;;;;1.38;0.90;;;;;;;5.25;80.48;98618.28;5029056;27;103318;-66
2023/12/20 03:46:14;;;;;;;0.70;0.70;;;;;;;5.25;80.33;98617.41;5013257;27;102861;-67
2023/12/20 03:48:43;;;;;;;0.80;0.80;;;;;;;5.24;80.54;98615.75;5027254;27;104219;-71
2023/12/20 03:51:12;;;;;;;1.35;0.93;;;;;;;5.23;80.37;98614.13;5026421;27;103263;-67
2023/12/20 03:53:40;;;;;;;1.50;1.00;;;;;;;5.10;80.81;98625.69;5007776;27;103040;-67
2023/12/20 03:56:08;;;;;;;0.82;0.82;;;;;;;5.18;80.73;98625.00;5032524;27;103426;-66
2023/12/20 03:58:36;;;;;;;0.98;0.90;;;;;;;5.18;80.50;98622.38;5029068;27;104221;-66
2023/12/20 04:01:04;;;;;;;0.98;0.90;;;;;;;5.14;80.53;98611.31;5032964;27;103924;-67
2023/12/20 04:03:32;;;;;;;1.27;1.00;;;;;;;5.15;80.26;98617.41;5002965;27;102982;-67
2023/12/20 04:06:01;;;;;;;0.98;0.95;;;;;;;5.12;80.19;98610.63;5022013;27;102537;-66
2023/12/20 04:08:32;;;;;;;0.80;0.80;;;;;;;5.09;80.23;98618.78;5030430;27;104040;-69
2023/12/20 04:11:00;;;;;;;0.47;0.47;;;;;;;5.20;80.15;98624.88;5013051;27;103347;-69
2023/12/20 04:13:28;;;;;;;2.17;0.93;;;;;;;5.17;80.12;98625.16;5032050;27;103373;-69
2023/12/20 04:15:55;;;;;;;1.10;1.00;;;;;;;5.16;80.19;98613.81;5030045;27;102675;-69
2023/12/20 04:18:23;;;;;;;1.02;0.90;;;;;;;5.09;80.63;98613.50;5030101;27;103250;-69
2023/12/20 04:20:51;;;;;;;1.02;1.00;;;;;;;5.10;80.66;98617.81;5030298;27;103260;-69
2023/12/20 04:23:21;;;;;;;0.90;0.90;;;;;;;5.04;80.12;98628.84;5024248;27;103105;-69
2023/12/20 04:25:49;;;;;;;0.80;0.80;;;;;;;5.10;80.20;98630.94;5010028;27;102568;-69
2023/12/20 04:28:17;;;;;;;1.27;1.00;;;;;;;5.15;80.33;98634.00;5012919;27;102654;-69
2023/12/20 04:30:45;;;;;;;1.50;1.02;;;;;;;5.12;80.20;98634.28;5036991;27;102613;-70
2023/12/20 04:33:13;;;;;;;0.85;0.85;;;;;;;5.06;80.58;98634.81;5010241;27;104130;-69
2023/12/20 04:35:42;;;;;;;0.90;0.90;;;;;;;5.11;80.52;98632.59;5032387;27;102649;-70
2023/12/20 04:38:14;;;;;;;1.10;1.00;;;;;;;5.03;81.18;98631.59;5020052;27;102964;-69
2023/12/20 04:40:44;;;;;;;0.85;0.85;;;;;;;5.07;80.63;98646.97;5029713;27;103897;-69
2023/12/20 04:43:12;;;;;;;1.20;1.10;;;;;;;5.09;80.73;98641.56;5022379;27;103255;-70
2023/12/20 04:45:40;;;;;;;1.27;0.98;;;;;;;5.06;80.52;98644.47;5035435;27;103165;-70
2023/12/20 04:48:08;;;;;;;1.98;1.10;;;;;;;5.05;80.79;98661.19;5017356;27;104056;-70
2023/12/20 04:50:38;;;;;;;0.80;0.80;;;;;;;5.05;80.52;98663.81;5030600;27;102599;-70
2023/12/20 04:53:06;;;;;;;1.55;1.10;;;;;;;5.08;80.67;98648.63;5032091;27;103233;-70
2023/12/20 04:55:34;;;;;;;1.17;1.00;;;;;;;5.09;80.50;98650.28;5017551;27;102829;-70
2023/12/20 04:58:04;;;;;;;2.40;1.08;;;;;;;5.09;80.38;98660.78;5035905;27;102663;-70
2023/12/20 05:00:34;;;;;;;1.40;1.00;;;;;;;5.17;80.81;98661.91;5029044;27;103235;-70
2023/12/20 05:03:02;;;;;;;1.15;1.00;;;;;;;5.21;80.02;98660.69;5028072;27;103180;-69
2023/12/20 05:05:30;;;;;;;1.38;1.00;;;;;;;5.10;80.13;98667.69;5025839;27;103838;-69
2023/12/20 05:07:58;;;;;;;1.58;0.90;;;;;;;5.18;80.01;98658.31;5013083;27;104248;-70
2023/12/20 05:10:26;;;;;;;1.83;1.35;;;;;;;5.18;80.41;98661.78;5029054;27;104723;-70
2023/12/20 05:12:54;;;;;;;1.42;1.17;;;;;;;5.15;80.44;98670.75;5030519;27;103702;-70
2023/12/20 05:15:24;;;;;;;0.68;0.68;;;;;;;5.17;80.29;98664.53;5030187;27;102632;-70
2023/12/20 05:17:52;;;;;;;0.90;0.90;;;;;;;5.13;80.51;98667.41;5028275;27;104020;-69
2023/12/20 05:20:20;;;;;;;2.78;1.40;;;;;;;5.11;80.55;98674.63;5030770;27;103213;-70
2023/12/20 05:22:48;;;;;;;1.00;0.90;;;;;;;5.21;80.31;98673.81;5029188;27;103191;-70
2023/12/20 05:25:16;;;;;;;2.75;1.30;;;;;;;5.15;80.02;98665.50;5028299;27;102672;-70
2023/12/20 05:27:44;;;;;;;1.13;1.02;;;;;;;5.19;80.69;98676.56;5023165;27;102647;-70
2023/12/20 05:30:13;;;;;;;1.15;1.00;;;;;;;5.19;80.39;98671.31;5010841;27;103283;-71
2023/12/20 05:32:45;;;;;;;1.10;0.90;;;;;;;5.20;80.46;98685.25;5031278;27;103217;-70
2023/12/20 05:35:14;;;;;;;0.90;0.90;;;;;;;5.21;80.85;98689.56;5028617;27;102621;-70
2023/12/20 05:37:44;;;;;;;1.10;0.82;;;;;;;5.20;80.90;98693.13;5014531;27;104266;-70
2023/12/20 05:40:15;;;;;;;0.85;0.85;;;;;;;5.06;81.25;98692.56;5010225;27;104330;-71
2023/12/20 05:42:43;;;;;;;0.90;0.90;;;;;;;5.19;81.13;98696.72;5029292;27;103182;-70
2023/12/20 05:45:11;;;;;;;1.63;1.23;;;;;;;5.18;81.40;98700.34;5003673;27;102689;-70
2023/12/20 05:47:39;;;;;;;1.95;1.23;;;;;;;5.25;81.16;98706.69;5008852;27;104113;-70
2023/12/20 05:50:10;;;;;;;2.17;1.20;;;;;;;5.23;81.30;98713.91;5012550;27;103465;-70
2023/12/20 05:52:38;;;;;;;1.63;1.25;;;;;;;5.21;81.81;98718.44;5029828;27;103306;-69
2023/12/20 05:55:06;;;;;;;1.58;1.20;;;;;;;5.17;81.87;98720.50;5033394;27;102705;-69
2023/12/20 05:57:38;;;;;;;2.25;1.35;;;;;;;5.19;82.11;98726.47;5028989;27;104017;-69
2023/12/20 06:00:11;;;;;;;1.63;1.17;;;;;;;5.21;82.12;98731.56;5025764;27;103283;-69
2023/12/20 06:02:42;;;;;;;1.75;1.42;;;;;;;5.25;82.06;98725.09;5032534;27;105236;-60
2023/12/20 06:05:16;;;;;;;2.00;1.48;;;;;;;5.26;81.63;98729.38;5024351;27;102660;-68
2023/12/20 06:07:47;;;;;;;2.20;1.40;;;;;;;5.27;82.16;98736.31;5008181;27;104026;-72
2023/12/20 06:10:16;;;;;;;1.67;1.48;;;;;;;5.29;81.96;98739.59;5026750;27;103233;-70
2023/12/20 06:12:47;;;;;;;3.28;1.70;;;;;;;5.24;82.08;98741.78;5009580;27;103201;-70
2023/12/20 06:15:15;;;;;;;2.38;1.60;;;;;;;5.26;82.07;98740.69;5024853;27;102638;-70
2023/12/20 06:17:43;;;;;;;2.75;1.77;;;;;;;5.19;82.25;98747.47;4998797;27;104409;-70
2023/12/20 06:20:12;;;;;;;2.70;1.63;;;;;;;5.22;82.54;98743.75;4996300;27;103891;-70
2023/12/20 06:22:49;;;;;;;3.03;1.60;;;;;;;5.29;82.40;98744.84;5018160;27;103582;-70
2023/12/20 06:25:17;;;;;;;2.53;1.58;;;;;;;5.27;82.19;98741.56;5027503;27;102812;-70
2023/12/20 06:27:45;;;;;;;2.65;1.60;;;;;;;5.26;82.58;98735.44;5010644;27;102713;-70
2023/12/20 06:30:14;;;;;;;2.10;1.52;;;;;;;5.24;82.41;98728.66;5024944;27;104430;-69
2023/12/20 06:32:42;;;;;;;2.47;1.50;;;;;;;5.23;82.91;98735.72;5026084;27;103794;-70
2023/12/20 06:35:10;;;;;;;3.90;1.60;;;;;;;5.29;82.61;98731.72;5004290;27;102764;-69
2023/12/20 06:37:42;;;;;;;2.00;1.40;;;;;;;5.29;82.65;98742.22;5036891;27;102967;-70
2023/12/20 06:40:12;;;;;;;2.25;1.52;;;;;;;5.33;82.48;98751.50;5018627;27;103366;-70
2023/12/20 06:42:47;;;;;;;2.35;1.63;;;;;;;5.34;82.53;98753.16;5027904;27;103220;-70
2023/12/20 06:45:32;;;;;;;2.13;1.50;;;;;;;5.29;82.97;98755.38;5012446;27;102756;-70
2023/12/20 06:48:00;;;;;;;2.50;1.70;;;;;;;5.35;82.50;98754.03;5007984;27;102777;-70
2023/12/20 06:50:28;;;;;;;2.35;1.40;;;;;;;5.38;82.33;98754.56;5007565;27;103290;-70
2023/12/20 06:52:56;;;;;;;2.85;1.63;;;;;;;5.38;82.30;98762.44;5028372;27;103249;-69
2023/12/20 06:55:26;;;;;;;3.10;1.60;;;;;;;5.29;82.95;98766.72;5025403;27;102666;-71
2023/12/20 06:57:53;;;;;;;3.00;1.88;;;;;;;5.33;82.56;98762.00;5021005;27;104095;-71
2023/12/20 07:00:22;;;;;;;3.55;2.22;;;;;;;5.25;82.57;98769.72;4989973;27;104405;-71
2023/12/20 07:02:50;;;;;;;3.30;2.40;;;;;;;5.24;82.40;98773.31;5011265;27;103255;-70
2023/12/20 07:05:19;;;;;;;4.45;2.78;;;;;;;5.24;82.28;98773.31;5027044;27;102642;-71
2023/12/20 07:07:48;;;;;;;3.30;2.40;;;;;;;5.31;82.59;98784.97;5009013;27;103024;-71
2023/12/20 07:10:17;;;;;;;3.53;2.70;;;;;;;5.33;82.43;98785.66;5010769;27;103210;-71
2023/12/20 07:12:48;;;;;;;5.80;3.42;;;;;;;5.17;82.64;98777.44;5040494;27;104346;-71
2023/12/20 07:15:16;;;;;;;4.32;3.10;;;;;;;5.26;82.22;98785.34;5029572;27;102713;-70
2023/12/20 07:17:45;;;;;;;6.05;3.15;;;;;;;5.36;82.10;98798.53;5014779;27;102971;-71
2023/12/20 07:20:13;;;;;;;4.22;3.17;;;;;;;5.34;82.26;98797.00;5034081;27;103447;-71
2023/12/20 07:22:42;;;;;;;5.80;3.30;;;;;;;5.24;82.86;98807.44;5045521;27;104328;-71
2023/12/20 07:25:10;;;;;;;7.75;4.18;;;;;;;5.14;82.14;98808.22;5030435;27;102599;-71
2023/12/20 07:27:39;;;;;;;4.03;2.88;;;;;;;5.34;82.36;98821.47;5029094;27;102776;-71
2023/12/20 07:30:13;;;;;;;5.75;4.22;;;;;;;5.34;82.12;98810.94;5012929;27;104055;-72
2023/12/20 07:32:41;;;;;;;4.80;3.03;;;;;;;5.27;82.11;98821.16;5023033;27;103239;-71
2023/12/20 07:35:09;;;;;;;4.30;3.20;;;;;;;5.24;81.97;98828.47;5033105;27;102605;-71
2023/12/20 07:37:40;;;;;;;5.82;3.83;;;;;;;5.32;81.30;98826.03;5033700;27;103535;-70
2023/12/20 07:40:08;;;;;;;4.20;2.95;;;;;;;5.32;81.03;98834.72;5040079;27;103922;-71
2023/12/20 07:42:37;;;;;;;4.25;2.83;;;;;;;5.40;81.22;98828.00;5027603;27;103512;-71
2023/12/20 07:45:07;;;;;;;4.63;3.22;;;;;;;5.30;80.48;98833.19;5006527;27;102802;-70
2023/12/20 07:47:37;;;;;;;5.47;2.85;;;;;;;5.22;80.34;98828.59;5025375;27;103053;-71
2023/12/20 07:50:06;;;;;;;4.03;3.15;;;;;;;5.30;80.71;98825.31;5023500;27;104160;-72
2023/12/20 07:52:36;;;;;;;5.25;2.97;;;;;;;5.24;80.26;98825.81;5023492;27;103172;-70
2023/12/20 07:55:05;;;;;;;4.60;2.70;;;;;;;5.22;80.38;98822.53;5017335;27;102529;-71
2023/12/20 07:57:33;;;;;;;5.45;3.38;;;;;;;5.19;80.08;98831.50;5024086;27;104043;-71
2023/12/20 08:00:01;;;;;;;4.28;3.25;;;;;;;5.23;80.16;98840.75;5007168;27;104362;-71
2023/12/20 08:02:31;;;;;;;7.25;3.85;;;;;;;5.10;79.49;98840.97;5030696;27;103119;-71
2023/12/20 08:05:00;;;;;;;4.47;2.90;;;;;;;5.15;79.95;98840.59;5022913;27;102589;-71
2023/12/20 08:07:29;;;;;;;4.97;3.40;;;;;;;5.22;78.85;98841.72;5008732;27;102822;-71
2023/12/20 08:09:57;;;;;;;6.05;3.28;;;;;;;5.17;79.21;98838.66;5006008;27;104345;-71
2023/12/20 08:12:27;;;;;;;5.60;3.90;;;;;;;5.11;79.09;98854.94;5022869;27;103211;-71
2023/12/20 08:14:56;;;;;;;5.82;3.63;;;;;;;4.93;78.49;98855.50;5027747;27;102676;-71
2023/12/20 08:17:25;;;;;;;4.95;2.90;;;;;;;5.01;78.58;98851.44;5026603;27;104233;-71
2023/12/20 08:19:53;;;;;;;4.80;3.75;;;;;;;4.93;78.37;98858.13;5009217;27;104273;-72
2023/12/20 08:22:22;;;;;;;7.10;3.22;;;;;;;4.98;78.59;98868.25;5010165;27;103364;-70
2023/12/20 08:24:50;;;;;;;6.20;3.00;;;;;;;4.90;78.41;98865.44;5003315;27;102783;-71
2023/12/20 08:27:19;;;;;;;5.35;3.50;;;;;;;4.92;78.00;98863.53;5007787;27;104304;-70
2023/12/20 08:29:50;;;;;;;5.18;3.25;;;;;;;4.97;78.18;98859.53;5010509;27;104219;-70
2023/12/20 08:32:20;;;;;;;5.10;3.17;;;;;;;4.86;77.86;98877.13;5023291;27;103107;-70
2023/12/20 08:34:49;;;;;;;6.10;3.13;;;;;;;4.87;78.12;98871.75;5018695;27;102539;-71
2023/12/20 08:37:17;;;;;;;3.88;2.60;;;;;;;5.17;77.83;98866.72;5024234;27;102682;-70
2023/12/20 08:39:47;;;;;;;4.15;2.80;;;;;;;5.23;77.37;98888.03;5025822;27;103372;-71
2023/12/20 08:42:15;;;;;;;5.05;3.42;;;;;;;5.38;76.88;98885.88;5003966;27;103333;-71
2023/12/20 08:44:43;;;;;;;5.60;3.40;;;;;;;5.52;75.94;98887.34;5025059;27;102738;-71
2023/12/20 08:47:13;;;;;;;5.97;3.60;;;;;;;5.57;76.15;98884.34;5044928;27;104901;-71
2023/12/20 08:49:41;;;;;;;5.10;3.03;;;;;;;5.77;76.65;98891.31;5038746;27;104237;-71
2023/12/20 08:52:09;;;;;;;5.43;3.35;;;;;;;5.91;75.51;98889.31;5002836;27;104205;-71
2023/12/20 08:54:37;;;;;;;8.05;3.40;;;;;;;5.94;75.05;98891.66;5025054;27;102593;-71
2023/12/20 08:57:07;;;;;;;5.85;3.20;;;;;;;6.02;74.28;98899.75;5002864;27;102669;-71
2023/12/20 08:59:35;;;;;;;4.50;2.90;;;;;;;6.09;75.16;98882.47;5019343;27;104217;-71
2023/12/20 09:02:03;;;;;;;5.18;3.20;;;;;;;6.13;73.53;98878.59;5005493;27;103478;-71
2023/12/20 09:04:31;;;;;;;4.30;2.90;;;;;;;6.16;72.98;98881.91;5025591;27;102827;-71
2023/12/20 09:07:01;;;;;;;5.72;3.30;;;;;;;6.45;74.13;98880.16;5014204;27;104409;-71
2023/12/20 09:09:32;;;;;;;5.13;2.80;;;;;;;6.60;74.03;98882.38;5028366;27;104542;-71
2023/12/20 09:12:00;;;;;;;4.53;3.05;;;;;;;6.40;73.03;98887.63;5027234;27;103531;-71
2023/12/20 09:14:30;;;;;;;4.32;2.67;;;;;;;6.49;73.10;98872.03;5023461;27;102651;-71
2023/12/20 09:16:58;;;;;;;4.47;2.72;;;;;;;6.62;72.68;98875.19;5017390;27;102652;-71
2023/12/20 09:19:27;;;;;;;4.78;3.10;;;;;;;6.69;72.30;98873.66;5026363;27;103930;-71
2023/12/20 09:21:55;;;;;;;4.38;2.85;;;;;;;6.63;72.68;98874.25;5025868;27;103280;-72
2023/12/20 09:24:23;;;;;;;4.85;2.70;;;;;;;6.62;71.57;98876.03;5026782;27;103960;-71
2023/12/20 09:26:51;;;;;;;4.60;2.50;;;;;;;6.76;70.71;98877.41;5011951;27;104556;-72
2023/12/20 09:29:19;;;;;;;6.93;2.75;;;;;;;6.87;71.28;98883.50;5025553;27;103438;-71
2023/12/20 09:31:48;;;;;;;4.88;2.70;;;;;;;6.86;69.62;98887.09;5029316;27;103267;-71
2023/12/20 09:34:17;;;;;;;4.68;2.85;;;;;;;6.75;70.06;98880.19;5007004;27;102657;-71
2023/12/20 09:36:46;;;;;;;5.05;2.60;;;;;;;6.75;69.78;98891.53;5026162;27;104416;-71
2023/12/20 09:39:14;;;;;;;5.85;2.90;;;;;;;6.92;70.27;98897.09;5032689;27;103222;-70
2023/12/20 09:41:46;;;;;;;4.82;2.40;;;;;;;6.86;69.44;98897.63;5026834;27;104350;-70
2023/12/20 09:44:17;;;;;;;4.13;2.17;;;;;;;6.88;67.96;98893.06;5010776;27;102679;-72
2023/12/20 09:46:50;;;;;;;4.57;2.30;;;;;;;6.79;67.08;98898.19;5010694;27;104227;-71
2023/12/20 09:49:19;;;;;;;5.40;2.25;;;;;;;6.90;67.48;98899.03;5007799;27;104299;-71
2023/12/20 09:51:48;;;;;;;3.58;1.73;;;;;;;7.20;68.07;98905.09;5001666;27;104966;-71
2023/12/20 09:54:17;;;;;;;7.15;2.33;;;;;;;6.89;65.68;98907.88;5030656;27;102684;-71
2023/12/20 09:56:45;;;;;;;5.43;2.33;;;;;;;7.11;66.66;98906.75;5020767;27;102597;-71
2023/12/20 09:59:15;;;;;;;6.40;2.17;;;;;;;6.89;65.55;98902.63;5028870;27;104034;-71
2023/12/20 10:01:43;;;;;;;4.25;2.17;;;;;;;7.14;65.75;98898.59;5023250;27;103355;-71
2023/12/20 10:04:14;;;;;;;6.65;2.53;;;;;;;7.04;64.81;98901.22;5027569;27;102992;-71
2023/12/20 10:06:57;;;;;;;4.95;2.47;;;;;;;7.12;64.37;98905.78;5030728;27;103983;-71
2023/12/20 10:09:26;;;;;;;5.10;2.92;;;;;;;7.14;64.69;98906.50;4999420;27;104180;-71
2023/12/20 10:11:57;;;;;;;9.55;2.50;;;;;;;6.98;64.81;98909.66;5007122;27;104183;-71
2023/12/20 10:14:25;;;;;;;9.77;2.60;;;;;;;6.65;63.84;98901.22;5013585;27;102768;-71
2023/12/20 10:16:54;;;;;;;5.57;2.22;;;;;;;6.44;64.61;98902.19;5027762;27;104187;-71
2023/12/20 10:19:26;;;;;;;5.53;2.40;;;;;;;6.44;65.21;98898.72;5010248;27;104204;-71
2023/12/20 10:21:54;;;;;;;5.38;1.98;;;;;;;6.27;64.90;98895.78;5023706;27;103221;-71
2023/12/20 10:24:22;;;;;;;7.45;2.63;;;;;;;6.43;65.46;98892.66;5029941;27;102702;-71
2023/12/20 10:27:04;;;;;;;5.50;2.13;;;;;;;6.65;64.36;98888.06;5012763;27;104193;-72
2023/12/20 10:29:35;;;;;;;5.60;2.58;;;;;;;6.95;64.84;98896.78;5010676;27;104022;-71
2023/12/20 10:32:22;;;;;;;;;;;;;;;6.62;64.50;98875.19;5002252;27;103672;-72
2023/12/20 10:34:52;;;;;;;6.57;2.17;;;;;;;6.50;65.54;98878.91;5007922;27;102680;-71
2023/12/20 10:37:21;;;;;;;5.53;2.17;;;;;;;6.33;64.99;98876.00;5026100;27;102622;-72
2023/12/20 10:40:03;;;;;;;6.22;2.22;;;;;;;6.34;65.63;98882.09;5032527;27;104010;-71
2023/12/20 10:42:47;;;;;;;9.13;2.42;;;;;;;6.38;65.82;98886.97;5012686;27;102969;-71
2023/12/20 10:45:21;;;;;;;6.00;2.72;;;;;;;6.07;65.89;98884.41;5057037;27;102522;-71
2023/12/20 10:47:54;;;;;;;3.40;1.70;;;;;;;6.45;66.59;98882.78;5044128;27;102685;-72
2023/12/20 10:50:31;;;;;;;4.32;2.20;;;;;;;6.71;65.05;98877.00;5034625;27;103845;-72
2023/12/20 10:53:00;;;;;;;5.40;2.17;;;;;;;6.85;63.01;98875.75;5033752;27;103155;-71
2023/12/20 10:55:29;;;;;;;5.57;2.75;;;;;;;7.20;61.98;98869.03;5033103;27;102552;-72
2023/12/20 10:58:08;;;;;;;7.55;2.42;;;;;;;7.21;61.41;98867.25;5038395;27;103031;-72
2023/12/20 11:00:47;;;;;;;4.13;2.10;;;;;;;7.34;62.29;98870.38;5030961;27;103051;-72
2023/12/20 11:03:18;;;;;;;6.85;2.60;;;;;;;7.62;61.07;98870.44;5016441;27;102762;-72
2023/12/20 11:05:54;;;;;;;5.10;2.50;;;;;;;7.67;60.44;98865.53;5009052;27;102691;-72
2023/12/20 11:08:29;;;;;;;6.63;2.40;;;;;;;7.80;60.43;98875.78;5004528;27;103810;-72
2023/12/20 11:11:04;;;;;;;5.55;2.17;;;;;;;7.84;61.73;98866.59;5004598;27;104505;-71
2023/12/20 11:13:35;;;;;;;5.15;2.05;;;;;;;7.59;62.08;98863.63;5025673;27;103327;-71
2023/12/20 11:16:04;;;;;;;5.53;2.17;;;;;;;7.07;61.61;98858.78;5019875;27;102527;-71
2023/12/20 11:18:32;;;;;;;4.50;2.20;;;;;;;7.06;62.98;98859.78;5011181;27;102760;-71
2023/12/20 11:21:05;;;;;;;5.30;2.42;;;;;;;6.94;61.10;98864.38;5003614;27;104336;-71
2023/12/20 11:23:35;;;;;;;5.10;2.20;;;;;;;7.09;61.89;98853.41;5025907;27;103088;-71
2023/12/20 11:26:04;;;;;;;4.20;2.20;;;;;;;7.05;62.72;98859.91;5025136;27;102934;-71
2023/12/20 11:28:32;;;;;;;5.35;2.20;;;;;;;6.79;61.56;98856.06;5010319;27;102741;-71
2023/12/20 11:31:02;;;;;;;5.15;2.20;;;;;;;7.04;62.43;98861.72;5024014;27;103468;-72
2023/12/20 11:33:36;;;;;;;4.05;2.10;;;;;;;6.89;63.51;98860.47;5042475;27;104148;-71
2023/12/20 11:36:14;;;;;;;6.68;2.70;;;;;;;6.77;61.67;98858.03;5036589;27;103950;-70
2023/12/20 11:38:55;;;;;;;3.50;2.50;;;;;;;6.47;62.43;98859.81;5022838;27;103662;-71
2023/12/20 11:41:24;;;;;;;9.02;2.95;;;;;;;6.63;62.41;98858.44;4999193;27;104514;-71
2023/12/20 11:43:54;;;;;;;7.93;2.75;;;;;;;6.68;62.79;98858.00;5027101;27;103217;-70